Terminal Aerodrome Forecast
Issued by NWS

Home | Current Version | Previous Version | Text Only | Print | Product List | Glossary On
Versions: 1 2 3 4 5 6 7 8 9 10 11 12 13 14 15 16 17 18 19 20
000
FTUS41 KBTV 232320
TAFSLK
TAF
KSLK 232320Z 2400/2424 25008KT P6SM VCSH SCT100
      TEMPO 2400/2402 2SM -SHRA BKN040
     FM240300 25005KT P6SM SCT040
     FM240800 26004KT P6SM BKN010
     FM241500 28007KT P6SM BKN035=

USA.gov is the U.S. government's official web portal to all federal, state and local government web resources and services.